| time (UTC) | temp F | wind direction | speed MPH | gust MPH | rain 1hr in | rain 24hr in | rain mn in | humidity % | barometer mb |
| 20260905191020 | 64 | 253 | 8.0 | 12.0 | 0.00 | 0.07 | 0.07 | 1 | 1020.7 |
| 20260905190516 | 64 | 271 | 4.0 | 9.0 | 0.00 | 0.07 | 0.07 | 1 | 1020.7 |
| 20260905190041 | 64 | 294 | 4.0 | 9.0 | 0.00 | 0.07 | 0.07 | 1 | 1020.9 |
| 20260905185518 | 64 | 267 | 6.0 | 9.0 | 0.00 | 0.07 | 0.07 | 1 | 1021.1 |
| 20260905185017 | 63 | 298 | 3.0 | 10.0 | 0.00 | 0.07 | 0.07 | 1 | 1021.0 |
| 20260905184554 | 63 | 257 | 6.0 | 10.0 | 0.00 | 0.07 | 0.07 | 1 | 1021.1 |
| 20260905184018 | 63 | 234 | 5.0 | 10.0 | 0.00 | 0.07 | 0.07 | 1 | 1021.1 |
| 20260905183516 | 63 | 252 | 4.0 | 10.0 | 0.00 | 0.07 | 0.07 | 1 | 1021.0 |
| 20260905183044 | 63 | 287 | 4.0 | 9.0 | 0.00 | 0.07 | 0.07 | 1 | 1020.9 |
| 20260905182518 | 62 | 295 | 3.0 | 10.0 | 0.00 | 0.07 | 0.07 | 1 | 1021.0 |
| 20260905182018 | 62 | 267 | 4.0 | 10.0 | 0.00 | 0.07 | 0.07 | 1 | 1021.0 |
| 20260905181546 | 62 | 241 | 2.0 | 6.0 | 0.00 | 0.07 | 0.07 | 1 | 1021.1 |
| 20260905181017 | 62 | 340 | 2.0 | 5.0 | 0.00 | 0.07 | 0.07 | 1 | 1021.1 |
| 20260905180519 | 62 | 316 | 1.0 | 4.0 | 0.00 | 0.07 | 0.07 | 1 | 1021.1 |
| 20260905180042 | 61 | 316 | 2.0 | 5.0 | 0.00 | 0.07 | 0.07 | 1 | 1021.1 |
| 20260905175525 | 61 | 316 | 3.0 | 5.0 | 0.00 | 0.07 | 0.07 | 1 | 1021.0 |
| 20260905175019 | 61 | 316 | 1.0 | 5.0 | 0.00 | 0.07 | 0.07 | 1 | 1020.9 |
| 20260905174540 | 60 | 302 | 4.0 | 5.0 | 0.00 | 0.07 | 0.07 | 1 | 1020.9 |
| 20260905174018 | 60 | 345 | 2.0 | 6.0 | 0.00 | 0.07 | 0.07 | 1 | 1021.0 |
| 20260905173519 | 60 | 313 | 4.0 | 8.0 | 0.00 | 0.07 | 0.07 | 1 | 1020.8 |
| 20260905173050 | 60 | 335 | 5.0 | 8.0 | 0.00 | 0.07 | 0.07 | 1 | 1020.8 |
| 20260905172518 | 60 | 319 | 3.0 | 8.0 | 0.00 | 0.07 | 0.07 | 1 | 1020.9 |
| 20260905172018 | 60 | 315 | 4.0 | 8.0 | 0.00 | 0.07 | 0.07 | 1 | 1020.7 |
| 20260905171540 | 59 | 319 | 3.0 | 8.0 | 0.00 | 0.07 | 0.07 | 1 | 1021.0 |
| 20260905171018 | 59 | 303 | 3.0 | 8.0 | 0.00 | 0.07 | 0.07 | 1 | 1020.9 |
| 20260905170522 | 58 | 299 | 3.0 | 8.0 | 0.00 | 0.07 | 0.07 | 1 | 1020.8 |
| 20260905170038 | 58 | 299 | 5.0 | 10.0 | 0.00 | 0.07 | 0.07 | 1 | 1021.0 |
| 20260905165517 | 58 | 286 | 6.0 | 11.0 | 0.00 | 0.07 | 0.07 | 1 | 1020.8 |
| 20260905165023 | 58 | 279 | 8.0 | 11.0 | 0.00 | 0.07 | 0.07 | 1 | 1020.6 |
| 20260905164545 | 57 | 296 | 6.0 | 11.0 | 0.00 | 0.07 | 0.07 | 1 | 1020.8 |
| 20260905164020 | 57 | 310 | 7.0 | 11.0 | 0.00 | 0.07 | 0.07 | 1 | 1020.8 |
| 20260905163519 | 56 | 288 | 5.0 | 9.0 | 0.00 | 0.07 | 0.07 | 1 | 1020.8 |
| 20260905163043 | 55 | 262 | 5.0 | 10.0 | 0.00 | 0.07 | 0.07 | 1 | 1021.0 |
| 20260905162518 | 55 | 269 | 6.0 | 11.0 | 0.00 | 0.07 | 0.07 | 1 | 1021.0 |
| 20260905162020 | 54 | 273 | 8.0 | 11.0 | 0.00 | 0.07 | 0.07 | 1 | 1020.7 |
| 20260905161541 | 54 | 263 | 8.0 | 11.0 | 0.00 | 0.07 | 0.07 | 1 | 1020.8 |
| 20260905161023 | 54 | 265 | 8.0 | 12.0 | 0.00 | 0.07 | 0.07 | 1 | 1020.7 |
| 20260905160519 | 54 | 246 | 9.0 | 12.0 | 0.00 | 0.07 | 0.07 | 1 | 1020.8 |
| 20260905160045 | 54 | 231 | 7.0 | 11.0 | 0.00 | 0.07 | 0.07 | 1 | 1020.8 |
| 20260905155518 | 55 | 215 | 3.0 | 5.0 | 0.00 | 0.07 | 0.07 | 1 | 1020.7 |
| 20260905155017 | 55 | 256 | 3.0 | 4.0 | 0.00 | 0.07 | 0.07 | 1 | 1020.7 |
| 20260905154545 | 55 | 256 | 1.0 | 7.0 | 0.00 | 0.07 | 0.07 | 1 | 1020.5 |
| 20260905154018 | 55 | 256 | 1.0 | 7.0 | 0.00 | 0.07 | 0.07 | 1 | 1020.3 |
| 20260905153518 | 55 | 304 | 3.0 | 8.0 | 0.01 | 0.07 | 0.07 | 1 | 1020.3 |
| 20260905153039 | 55 | 304 | 3.0 | 10.0 | 0.01 | 0.07 | 0.07 | 1 | 1020.2 |
| 20260905152523 | 55 | 312 | 5.0 | 10.0 | 0.01 | 0.07 | 0.07 | 1 | 1020.1 |
| 20260905152019 | 54 | 344 | 7.0 | 10.0 | 0.01 | 0.07 | 0.07 | 1 | 1020.1 |
| 20260905151555 | 54 | 310 | 7.0 | 9.0 | 0.01 | 0.07 | 0.07 | 1 | 1020.3 |
| 20260905151021 | 54 | 313 | 5.0 | 8.0 | 0.01 | 0.07 | 0.07 | 1 | 1020.2 |
| 20260905150521 | 53 | 309 | 2.0 | 6.0 | 0.01 | 0.07 | 0.07 | 1 | 1020.4 |
| 20260905150046 | 53 | 304 | 3.0 | 10.0 | 0.01 | 0.07 | 0.07 | 1 | 1020.3 |
| 20260905145516 | 53 | 308 | 4.0 | 13.0 | 0.01 | 0.07 | 0.07 | 1 | 1020.2 |
| 20260905145018 | 53 | 315 | 6.0 | 15.0 | 0.02 | 0.07 | 0.07 | 1 | 1020.0 |
| 20260905144546 | 53 | 335 | 9.0 | 15.0 | 0.03 | 0.07 | 0.07 | 1 | 1019.9 |
| 20260905144016 | 52 | 346 | 6.0 | 10.0 | 0.03 | 0.07 | 0.07 | 1 | 1020.1 |
| 20260905143516 | 52 | 304 | 7.0 | 12.0 | 0.03 | 0.06 | 0.06 | 1 | 1020.2 |
| 20260905143039 | 52 | 325 | 9.0 | 12.0 | 0.03 | 0.06 | 0.06 | 1 | 1020.1 |
| 20260905142525 | 52 | 316 | 5.0 | 12.0 | 0.04 | 0.06 | 0.06 | 1 | 1020.0 |
| 20260905142019 | 52 | 331 | 7.0 | 12.0 | 0.04 | 0.06 | 0.06 | 1 | 1020.0 |
| 20260905141546 | 51 | 339 | 7.0 | 10.0 | 0.04 | 0.06 | 0.06 | 1 | 1020.1 |
| 20260905141020 | 51 | 326 | 6.0 | 10.0 | 0.04 | 0.06 | 0.06 | 1 | 1020.1 |
| 20260905140518 | 51 | 301 | 7.0 | 10.0 | 0.06 | 0.06 | 0.06 | 1 | 1020.3 |
| 20260905140054 | 51 | 312 | 6.0 | 9.0 | 0.06 | 0.06 | 0.06 | 1 | 1020.4 |
| 20260905135518 | 51 | 295 | 3.0 | 5.0 | 0.06 | 0.06 | 0.06 | 1 | 1020.8 |
| 20260905135021 | 51 | 295 | 3.0 | 7.0 | 0.04 | 0.04 | 0.04 | 1 | 1020.9 |
| 20260905134550 | 52 | 295 | 4.0 | 11.0 | 0.04 | 0.04 | 0.04 | 1 | 1020.8 |
| 20260905134021 | 52 | 286 | 8.0 | 13.0 | 0.04 | 0.04 | 0.04 | 1 | 1020.9 |
| 20260905133521 | 52 | 266 | 10.0 | 13.0 | 0.03 | 0.03 | 0.03 | 1 | 1021.1 |
| 20260905133047 | 52 | 253 | 10.0 | 16.0 | 0.03 | 0.03 | 0.03 | 1 | 1021.0 |
| 20260905132517 | 52 | 252 | 10.0 | 16.0 | 0.02 | 0.02 | 0.02 | 1 | 1021.1 |
| 20260905132019 | 52 | 269 | 11.0 | 13.0 | 0.01 | 0.01 | 0.01 | 1 | 1020.7 |
| 20260905131553 | 52 | 297 | 4.0 | 9.0 | 0.01 | 0.01 | 0.01 | 1 | 1020.3 |
| 20260905131020 | 52 | 265 | 8.0 | 9.0 | 0.01 | 0.01 | 0.01 | 1 | 1020.5 |
| 20260905130518 | 52 | 262 | 4.0 | 6.0 | 0.00 | 0.00 | 0.00 | 1 | 1020.2 |
| 20260905130052 | 52 | 15 | 3.0 | 4.0 | 0.00 | 0.00 | 0.00 | 1 | 1020.0 |
| 20260905125516 | 52 | 15 | 0.0 | 1.0 | 0.00 | 0.00 | 0.00 | 1 | 1020.0 |
| 20260905125020 | 52 | 15 | 0.0 | 5.0 | 0.00 | 0.00 | 0.00 | 1 | 1019.9 |
| 20260905124546 | 52 | 15 | 2.0 | 11.0 | 0.00 | 0.00 | 0.00 | 1 | 1019.5 |
| 20260905124017 | 52 | 360 | 6.0 | 12.0 | 0.00 | 0.00 | 0.00 | 1 | 1019.1 |
| 20260905123525 | 52 | 347 | 8.0 | 12.0 | 0.00 | 0.00 | 0.00 | 1 | 1019.0 |
| 20260905123104 | 52 | 339 | 9.0 | 12.0 | 0.00 | 0.00 | 0.00 | 1 | 1019.1 |
| 20260905122518 | 53 | 317 | 9.0 | 12.0 | 0.00 | 0.00 | 0.00 | 1 | 1019.2 |
| 20260905122017 | 53 | 321 | 9.0 | 12.0 | 0.00 | 0.00 | 0.00 | 1 | 1019.3 |
| 20260905121551 | 53 | 328 | 5.0 | 11.0 | 0.00 | 0.00 | 0.00 | 1 | 1019.5 |
| 20260905121018 | 53 | 318 | 8.0 | 12.0 | 0.00 | 0.00 | 0.00 | 1 | 1019.6 |
| 20260905120519 | 54 | 360 | 8.0 | 13.0 | 0.00 | 0.00 | 0.00 | 1 | 1019.3 |
| 20260905120049 | 53 | 304 | 7.0 | 13.0 | 0.00 | 0.00 | 0.00 | 1 | 1019.2 |
| 20260905115523 | 53 | 309 | 10.0 | 14.0 | 0.00 | 0.00 | 0.00 | 1 | 1019.2 |
| 20260905115018 | 53 | 301 | 8.0 | 14.0 | 0.00 | 0.00 | 0.00 | 1 | 1019.2 |
| 20260905114554 | 53 | 305 | 7.0 | 11.0 | 0.00 | 0.00 | 0.00 | 1 | 1019.2 |
| 20260905114018 | 53 | 302 | 5.0 | 12.0 | 0.00 | 0.00 | 0.00 | 1 | 1019.2 |
| 20260905113518 | 52 | 327 | 7.0 | 14.0 | 0.00 | 0.00 | 0.00 | 1 | 1018.9 |
| 20260905113049 | 52 | 332 | 10.0 | 14.0 | 0.00 | 0.00 | 0.00 | 1 | 1018.8 |
| 20260905112518 | 52 | 310 | 7.0 | 12.0 | 0.00 | 0.00 | 0.00 | 1 | 1018.9 |
| 20260905112018 | 51 | 334 | 7.0 | 10.0 | 0.00 | 0.00 | 0.00 | 1 | 1018.9 |
| 20260905111555 | 51 | 325 | 6.0 | 8.0 | 0.00 | 0.00 | 0.00 | 1 | 1018.7 |
| 20260905111020 | 50 | 323 | 5.0 | 8.0 | 0.00 | 0.00 | 0.00 | 1 | 1018.7 |
| 20260905110528 | 50 | 307 | 5.0 | 8.0 | 0.00 | 0.00 | 0.00 | 1 | 1018.7 |
| 20260905110046 | 50 | 349 | 3.0 | 5.0 | 0.00 | 0.00 | 0.00 | 1 | 1018.7 |
| 20260905105518 | 51 | 349 | 2.0 | 5.0 | 0.00 | 0.00 | 0.00 | 1 | 1018.8 |
| 20260905105017 | 51 | 349 | 4.0 | 5.0 | 0.00 | 0.00 | 0.00 | 1 | 1018.8 |
| 20260905104541 | 51 | 349 | 2.0 | 3.0 | 0.00 | 0.00 | 0.00 | 1 | 1018.6 |
| 20260905104016 | 51 | 349 | 1.0 | 6.0 | 0.00 | 0.00 | 0.00 | 1 | 1018.3 |
| 20260905103516 | 51 | 349 | 4.0 | 6.0 | 0.00 | 0.00 | 0.00 | 1 | 1018.0 |
| 20260905103056 | 52 | 355 | 2.0 | 6.0 | 0.00 | 0.00 | 0.00 | 1 | 1018.8 |
| 20260905102520 | 52 | 355 | 2.0 | 9.0 | 0.00 | 0.00 | 0.00 | 1 | 1018.7 |
| 20260905102020 | 53 | 348 | 5.0 | 9.0 | 0.00 | 0.00 | 0.00 | 1 | 1018.3 |
| 20260905101548 | 53 | 5 | 4.0 | 11.0 | 0.00 | 0.00 | 0.00 | 1 | 1018.3 |
| 20260905101017 | 53 | 344 | 7.0 | 11.0 | 0.00 | 0.00 | 0.00 | 1 | 1018.3 |
| 20260905100517 | 53 | 323 | 7.0 | 11.0 | 0.00 | 0.00 | 0.00 | 1 | 1018.3 |
| 20260905100106 | 53 | 304 | 3.0 | 6.0 | 0.00 | 0.00 | 0.00 | 1 | 1018.3 |
| 20260905095517 | 54 | 320 | 0.0 | 10.0 | 0.00 | 0.00 | 0.00 | 1 | 1018.2 |
| 20260905095018 | 54 | 320 | 2.0 | 10.0 | 0.00 | 0.00 | 0.00 | 1 | 1018.2 |
| 20260905094551 | 53 | 337 | 5.0 | 8.0 | 0.00 | 0.00 | 0.00 | 1 | 1018.1 |
| 20260905094017 | 54 | 340 | 5.0 | 10.0 | 0.00 | 0.00 | 0.00 | 1 | 1018.1 |
| 20260905093518 | 54 | 329 | 6.0 | 10.0 | 0.00 | 0.00 | 0.00 | 1 | 1018.3 |
| 20260905093051 | 54 | 265 | 1.0 | 7.0 | 0.00 | 0.00 | 0.00 | 1 | 1018.3 |
| 20260905092519 | 54 | 265 | 5.0 | 7.0 | 0.00 | 0.00 | 0.00 | 1 | 1018.1 |
| 20260905092020 | 55 | 240 | 3.0 | 8.0 | 0.00 | 0.00 | 0.00 | 1 | 1018.2 |
| 20260905091554 | 55 | 240 | 5.0 | 8.0 | 0.00 | 0.00 | 0.00 | 1 | 1017.9 |
| 20260905091021 | 55 | 219 | 4.0 | 5.0 | 0.00 | 0.00 | 0.00 | 1 | 1017.7 |
| 20260905090519 | 54 | 9 | 3.0 | 5.0 | 0.00 | 0.00 | 0.00 | 1 | 1017.6 |
| 20260905090057 | 54 | 9 | 1.0 | 3.0 | 0.00 | 0.00 | 0.00 | 1 | 1017.6 |
| 20260905085518 | 54 | 9 | 0.0 | 2.0 | 0.00 | 0.00 | 0.00 | 1 | 1017.6 |
| 20260905085021 | 54 | 9 | 0.0 | 1.0 | 0.00 | 0.00 | 0.00 | 1 | 1017.8 |
| 20260905084605 | 54 | 9 | 0.0 | 3.0 | 0.00 | 0.00 | 0.00 | 1 | 1017.6 |
| 20260905084017 | 55 | 9 | 1.0 | 4.0 | 0.00 | 0.00 | 0.00 | 1 | 1017.2 |
| 20260905083524 | 55 | 9 | 1.0 | 6.0 | 0.00 | 0.00 | 0.00 | 1 | 1017.0 |
| 20260905083051 | 56 | 9 | 4.0 | 9.0 | 0.00 | 0.00 | 0.00 | 1 | 1016.9 |
| 20260905082519 | 56 | 334 | 5.0 | 11.0 | 0.00 | 0.00 | 0.00 | 1 | 1016.8 |
| 20260905082019 | 56 | 344 | 7.0 | 13.0 | 0.00 | 0.00 | 0.00 | 1 | 1016.7 |
| 20260905081547 | 56 | 360 | 10.0 | 13.0 | 0.00 | 0.00 | 0.00 | 1 | 1016.8 |
| 20260905081021 | 55 | 339 | 7.0 | 11.0 | 0.00 | 0.00 | 0.00 | 1 | 1017.2 |
| 20260905080516 | 56 | 313 | 5.0 | 9.0 | 0.00 | 0.00 | 0.00 | 1 | 1017.7 |
| 20260905080113 | 56 | 304 | 5.0 | 9.0 | 0.00 | 0.00 | 0.00 | 1 | 1017.9 |
| 20260905075521 | 56 | 334 | 6.0 | 11.0 | 0.00 | 0.00 | 0.00 | 1 | 1017.7 |
| 20260905075019 | 56 | 333 | 7.0 | 14.0 | 0.00 | 0.00 | 0.00 | 1 | 1017.8 |
| 20260905074546 | 57 | 323 | 7.0 | 14.0 | 0.00 | 0.00 | 0.00 | 1 | 1017.9 |
| 20260905074020 | 57 | 350 | 10.0 | 14.0 | 0.00 | 0.00 | 0.00 | 1 | 1017.8 |
| 20260905073517 | 56 | 314 | 9.0 | 16.0 | 0.00 | 0.00 | 0.00 | 1 | 1018.0 |
| 20260905073055 | 56 | 346 | 11.0 | 16.0 | 0.00 | 0.00 | 0.00 | 1 | 1017.8 |
| 20260905072518 | 56 | 308 | 5.0 | 11.0 | 0.00 | 0.00 | 0.00 | 1 | 1017.7 |
| 20260905072018 | 56 | 311 | 6.0 | 12.0 | 0.00 | 0.00 | 0.00 | 1 | 1017.7 |
| 20260905071551 | 56 | 336 | 8.0 | 14.0 | 0.00 | 0.00 | 0.00 | 1 | 1017.7 |
| 20260905071021 | 57 | 333 | 8.0 | 16.0 | 0.00 | 0.00 | 0.00 | 1 | 1017.6 |
| 20260905070516 | 57 | 332 | 7.0 | 16.0 | 0.00 | 0.00 | 0.00 | 1 | 1017.7 |
| 20260905070055 | 57 | 338 | 10.0 | 16.0 | 0.00 | 0.00 | 0.00 | 1 | 1017.3 |
| 20260905065517 | 57 | 360 | 9.0 | 16.0 | 0.00 | 0.00 | 0.00 | 1 | 1017.4 |
| 20260905065019 | 56 | 336 | 11.0 | 16.0 | 0.00 | 0.00 | 0.00 | 1 | 1017.2 |
| 20260905064553 | 56 | 292 | 10.0 | 16.0 | 0.00 | 0.00 | 0.00 | 1 | 1017.4 |
| 20260905064020 | 56 | 309 | 11.0 | 18.0 | 0.00 | 0.00 | 0.00 | 1 | 1017.6 |
| 20260905063519 | 56 | 328 | 12.0 | 17.0 | 0.00 | 0.00 | 0.00 | 1 | 1017.4 |
| 20260905063055 | 57 | 343 | 12.0 | 17.0 | 0.00 | 0.00 | 0.00 | 1 | 1017.4 |
| 20260905062516 | 56 | 309 | 10.0 | 16.0 | 0.00 | 0.00 | 0.00 | 1 | 1017.6 |
| 20260905062016 | 57 | 325 | 11.0 | 16.0 | 0.00 | 0.00 | 0.00 | 1 | 1017.5 |
| 20260905061558 | 56 | 342 | 9.0 | 15.0 | 0.00 | 0.00 | 0.00 | 1 | 1017.6 |
| 20260905061022 | 56 | 279 | 7.0 | 11.0 | 0.00 | 0.00 | 0.00 | 1 | 1017.6 |
| 20260905060518 | 56 | 336 | 7.0 | 11.0 | 0.00 | 0.00 | 0.00 | 1 | 1017.5 |
| 20260905060056 | 56 | 339 | 5.0 | 10.0 | 0.00 | 0.00 | 0.00 | 1 | 1017.5 |
| 20260905055518 | 56 | 298 | 4.0 | 10.0 | 0.00 | 0.00 | 0.00 | 1 | 1017.6 |
| 20260905055022 | 57 | 309 | 4.0 | 13.0 | 0.00 | 0.00 | 0.00 | 1 | 1017.3 |
| 20260905054552 | 57 | 271 | 6.0 | 13.0 | 0.00 | 0.00 | 0.00 | 1 | 1017.4 |
| 20260905054023 | 57 | 314 | 7.0 | 15.0 | 0.00 | 0.00 | 0.00 | 1 | 1017.1 |
| 20260905053519 | 57 | 346 | 10.0 | 16.0 | 0.00 | 0.00 | 0.00 | 1 | 1016.7 |
| 20260905053108 | 57 | 344 | 11.0 | 18.0 | 0.00 | 0.00 | 0.00 | 1 | 1016.5 |
| 20260905052517 | 57 | 325 | 13.0 | 19.0 | 0.00 | 0.00 | 0.00 | 1 | 1016.3 |
| 20260905052016 | 57 | 339 | 12.0 | 19.0 | 0.00 | 0.00 | 0.00 | 1 | 1016.8 |
| 20260905051555 | 57 | 340 | 13.0 | 18.0 | 0.00 | 0.00 | 0.00 | 1 | 1016.8 |
| 20260905051022 | 58 | 298 | 12.0 | 23.0 | 0.00 | 0.00 | 0.00 | 1 | 1017.2 |
| 20260905050521 | 58 | 335 | 16.0 | 23.0 | 0.00 | 0.00 | 0.00 | 1 | 1016.9 |
| 20260905050050 | 57 | 332 | 14.0 | 20.0 | 0.00 | 0.00 | 0.00 | 1 | 1016.8 |
| 20260905045520 | 57 | 296 | 8.0 | 12.0 | 0.00 | 0.00 | 0.00 | 1 | 1017.0 |
| 20260905045023 | 57 | 295 | 8.0 | 15.0 | 0.00 | 0.00 | 0.00 | 1 | 1017.3 |
| 20260905044549 | 58 | 328 | 9.0 | 15.0 | 0.00 | 0.00 | 0.00 | 1 | 1017.2 |
| 20260905044018 | 58 | 346 | 11.0 | 15.0 | 0.00 | 0.00 | 0.00 | 1 | 1016.9 |
| 20260905043520 | 59 | 349 | 9.0 | 13.0 | 0.00 | 0.00 | 0.00 | 1 | 1017.0 |
| 20260905043108 | 59 | 348 | 5.0 | 13.0 | 0.00 | 0.00 | 0.00 | 1 | 1017.3 |
| 20260905042521 | 59 | 315 | 6.0 | 19.0 | 0.00 | 0.00 | 0.00 | 1 | 1017.3 |
| 20260905042228 | 60 | 290 | 7.0 | 20.0 | 0.00 | 0.00 | 0.00 | 1 | 1017.2 |
| 20260905041542 | 60 | 311 | 12.0 | 22.0 | 0.00 | 0.00 | 0.00 | 1 | 1017.1 |
| 20260905041016 | 61 | 305 | 15.0 | 25.0 | 0.00 | 0.00 | 0.00 | 1 | 1016.6 |
| 20260905040517 | 60 | 329 | 18.0 | 25.0 | 0.00 | 0.00 | 0.00 | 1 | 1016.0 |
| 20260905040051 | 60 | 312 | 10.0 | 17.0 | 0.00 | 0.00 | 0.00 | 1 | 1016.2 |
| 20260905035518 | 61 | 303 | 11.0 | 19.0 | 0.00 | 0.00 | 0.00 | 1 | 1016.2 |
| 20260905035019 | 61 | 351 | 14.0 | 20.0 | 0.00 | 0.00 | 0.00 | 1 | 1016.1 |
| 20260905034545 | 61 | 333 | 14.0 | 22.0 | 0.00 | 0.00 | 0.00 | 1 | 1015.8 |
| 20260905034018 | 61 | 340 | 15.0 | 24.0 | 0.00 | 0.00 | 0.00 | 1 | 1015.5 |
| 20260905033519 | 61 | 331 | 17.0 | 23.0 | 0.00 | 0.00 | 0.00 | 1 | 1015.3 |
| 20260905033047 | 61 | 319 | 14.0 | 20.0 | 0.00 | 0.00 | 0.00 | 1 | 1015.8 |
| 20260905032520 | 61 | 345 | 13.0 | 23.0 | 0.00 | 0.00 | 0.00 | 1 | 1016.0 |
| 20260905032020 | 61 | 321 | 16.0 | 25.0 | 0.00 | 0.00 | 0.00 | 1 | 1015.9 |
| 20260905031548 | 61 | 17 | 15.0 | 20.0 | 0.00 | 0.00 | 0.00 | 1 | 1015.6 |
| 20260905031020 | 61 | 332 | 12.0 | 21.0 | 0.00 | 0.00 | 0.00 | 1 | 1015.7 |
| 20260905030518 | 61 | 313 | 15.0 | 22.0 | 0.00 | 0.00 | 0.00 | 1 | 1015.9 |
| 20260905030049 | 61 | 316 | 16.0 | 24.0 | 0.00 | 0.00 | 0.00 | 1 | 1015.5 |
| 20260905025520 | 61 | 338 | 17.0 | 24.0 | 0.00 | 0.00 | 0.00 | 1 | 1015.3 |
| 20260905025019 | 61 | 330 | 12.0 | 24.0 | 0.00 | 0.00 | 0.00 | 1 | 1015.3 |
| 20260905024551 | 61 | 344 | 14.0 | 23.0 | 0.00 | 0.00 | 0.00 | 1 | 1015.1 |
| 20260905024015 | 61 | 336 | 14.0 | 22.0 | 0.00 | 0.00 | 0.00 | 1 | 1015.0 |
| 20260905023523 | 61 | 320 | 15.0 | 23.0 | 0.00 | 0.00 | 0.00 | 1 | 1014.9 |
| 20260905023051 | 61 | 352 | 17.0 | 25.0 | 0.00 | 0.00 | 0.00 | 1 | 1014.7 |
| 20260905022517 | 62 | 346 | 15.0 | 25.0 | 0.00 | 0.00 | 0.00 | 1 | 1014.6 |
| 20260905022021 | 62 | 335 | 17.0 | 22.0 | 0.00 | 0.00 | 0.00 | 1 | 1014.6 |
| 20260905021552 | 62 | 269 | 13.0 | 28.0 | 0.00 | 0.00 | 0.00 | 1 | 1014.9 |
| 20260905021019 | 62 | 329 | 20.0 | 31.0 | 0.00 | 0.00 | 0.00 | 1 | 1014.2 |
| 20260905020522 | 62 | 316 | 20.0 | 31.0 | 0.00 | 0.00 | 0.00 | 1 | 1013.8 |
| 20260905020050 | 62 | 316 | 17.0 | 26.0 | 0.00 | 0.00 | 0.00 | 1 | 1013.4 |
| 20260905015516 | 62 | 324 | 18.0 | 27.0 | 0.00 | 0.00 | 0.00 | 1 | 1013.6 |
| 20260905015019 | 62 | 335 | 20.0 | 30.0 | 0.00 | 0.00 | 0.00 | 1 | 1013.8 |
| 20260905014551 | 62 | 322 | 19.0 | 30.0 | 0.00 | 0.00 | 0.00 | 1 | 1013.5 |
| 20260905014022 | 62 | 326 | 14.0 | 23.0 | 0.00 | 0.00 | 0.00 | 1 | 1013.9 |
| 20260905013518 | 62 | 331 | 16.0 | 22.0 | 0.00 | 0.00 | 0.00 | 1 | 1013.7 |
| 20260905013046 | 62 | 342 | 14.0 | 23.0 | 0.00 | 0.00 | 0.00 | 1 | 1013.6 |
| 20260905012519 | 63 | 347 | 14.0 | 27.0 | 0.00 | 0.00 | 0.00 | 1 | 1013.7 |
| 20260905012016 | 63 | 360 | 20.0 | 30.0 | 0.00 | 0.00 | 0.00 | 1 | 1013.2 |
| 20260905011600 | 64 | 331 | 20.0 | 30.0 | 0.00 | 0.00 | 0.00 | 1 | 1013.3 |
| 20260905011018 | 64 | 321 | 21.0 | 30.0 | 0.00 | 0.00 | 0.00 | 1 | 1013.4 |
| 20260905010519 | 64 | 326 | 17.0 | 24.0 | 0.00 | 0.00 | 0.00 | 1 | 1013.6 |
| 20260905010047 | 64 | 319 | 18.0 | 27.0 | 0.00 | 0.00 | 0.00 | 1 | 1013.4 |
| 20260905005516 | 64 | 316 | 18.0 | 27.0 | 0.00 | 0.00 | 0.00 | 1 | 1013.4 |
| 20260905005016 | 64 | 331 | 15.0 | 23.0 | 0.00 | 0.00 | 0.00 | 1 | 1013.4 |
| 20260905004548 | 64 | 313 | 16.0 | 23.0 | 0.00 | 0.00 | 0.00 | 1 | 1013.8 |
| 20260905004017 | 64 | 336 | 16.0 | 23.0 | 0.00 | 0.00 | 0.00 | 1 | 1013.7 |
| 20260905003520 | 64 | 305 | 18.0 | 24.0 | 0.00 | 0.00 | 0.00 | 1 | 1013.9 |
| 20260905003054 | 65 | 310 | 13.0 | 25.0 | 0.00 | 0.00 | 0.00 | 1 | 1014.0 |
| 20260905002522 | 65 | 317 | 18.0 | 25.0 | 0.00 | 0.00 | 0.00 | 1 | 1014.0 |
| 20260905002022 | 65 | 323 | 17.0 | 26.0 | 0.00 | 0.00 | 0.00 | 1 | 1014.1 |
| 20260905001550 | 65 | 317 | 18.0 | 26.0 | 0.00 | 0.00 | 0.00 | 1 | 1014.3 |
| 20260905001018 | 66 | 307 | 14.0 | 20.0 | 0.00 | 0.00 | 0.00 | 1 | 1014.3 |
| 20260905000520 | 65 | 321 | 13.0 | 21.0 | 0.00 | 0.00 | 0.00 | 1 | 1014.6 |
| 20260905000050 | 64 | 292 | 13.0 | 21.0 | 0.00 | 0.00 | 0.00 | 1 | 1014.5 |
| 20260904235517 | 65 | 318 | 14.0 | 21.0 | 0.00 | 0.00 | 0.00 | 1 | 1014.6 |
| 20260904235017 | 66 | 297 | 11.0 | 20.0 | 0.00 | 0.00 | 0.00 | 1 | 1014.6 |
| 20260904234550 | 65 | 325 | 15.0 | 23.0 | 0.00 | 0.00 | 0.00 | 1 | 1014.3 |
| 20260904234019 | 66 | 307 | 16.0 | 23.0 | 0.00 | 0.00 | 0.00 | 1 | 1014.4 |
| 20260904233521 | 66 | 324 | 13.0 | 22.0 | 0.00 | 0.00 | 0.00 | 1 | 1014.4 |
| 20260904233058 | 67 | 299 | 14.0 | 22.0 | 0.00 | 0.00 | 0.00 | 1 | 1014.4 |
| 20260904232521 | 67 | 320 | 15.0 | 25.0 | 0.00 | 0.00 | 0.00 | 1 | 1014.5 |
| 20260904232019 | 67 | 331 | 16.0 | 25.0 | 0.00 | 0.00 | 0.00 | 1 | 1014.4 |
| 20260904231545 | 67 | 320 | 15.0 | 24.0 | 0.00 | 0.00 | 0.00 | 1 | 1014.3 |
| 20260904231016 | 67 | 360 | 15.0 | 23.0 | 0.00 | 0.00 | 0.00 | 1 | 1014.3 |
| 20260904230518 | 66 | 323 | 16.0 | 25.0 | 0.00 | 0.00 | 0.00 | 1 | 1014.2 |
| 20260904230051 | 67 | 317 | 14.0 | 20.0 | 0.00 | 0.00 | 0.00 | 1 | 1014.2 |
| 20260904225516 | 67 | 337 | 11.0 | 21.0 | 0.00 | 0.00 | 0.00 | 1 | 1014.2 |
| 20260904225017 | 67 | 274 | 14.0 | 21.0 | 0.00 | 0.00 | 0.00 | 1 | 1014.2 |
| 20260904224548 | 68 | 316 | 13.0 | 21.0 | 0.00 | 0.00 | 0.00 | 1 | 1014.0 |
| 20260904224018 | 68 | 313 | 14.0 | 21.0 | 0.00 | 0.00 | 0.00 | 1 | 1013.7 |
| 20260904223518 | 67 | 313 | 15.0 | 22.0 | 0.00 | 0.00 | 0.00 | 1 | 1013.7 |
| 20260904223046 | 66 | 331 | 15.0 | 25.0 | 0.00 | 0.00 | 0.00 | 1 | 1013.7 |
| 20260904222515 | 66 | 336 | 19.0 | 26.0 | 0.00 | 0.00 | 0.00 | 1 | 1013.8 |
| 20260904222017 | 67 | 312 | 17.0 | 25.0 | 0.00 | 0.00 | 0.00 | 1 | 1013.7 |
| 20260904221553 | 68 | 344 | 14.0 | 24.0 | 0.00 | 0.00 | 0.00 | 1 | 1013.8 |
| 20260904221019 | 66 | 323 | 17.0 | 24.0 | 0.00 | 0.00 | 0.00 | 1 | 1013.7 |
| 20260904220518 | 65 | 306 | 15.0 | 23.0 | 0.00 | 0.00 | 0.00 | 1 | 1013.7 |
| 20260904220105 | 66 | 306 | 13.0 | 23.0 | 0.00 | 0.00 | 0.00 | 1 | 1013.4 |
| 20260904215517 | 68 | 315 | 16.0 | 23.0 | 0.00 | 0.00 | 0.00 | 1 | 1013.3 |
| 20260904215017 | 67 | 316 | 16.0 | 23.0 | 0.00 | 0.00 | 0.00 | 1 | 1013.3 |
| 20260904214546 | 67 | 323 | 13.0 | 23.0 | 0.00 | 0.00 | 0.00 | 1 | 1013.3 |
| 20260904214019 | 68 | 299 | 14.0 | 25.0 | 0.00 | 0.00 | 0.00 | 1 | 1013.3 |
| 20260904213519 | 68 | 345 | 18.0 | 25.0 | 0.00 | 0.00 | 0.00 | 1 | 1013.1 |
| 20260904213052 | 68 | 309 | 15.0 | 24.0 | 0.00 | 0.00 | 0.00 | 1 | 1013.2 |
| 20260904212519 | 68 | 311 | 18.0 | 24.0 | 0.00 | 0.00 | 0.00 | 1 | 1013.0 |
| 20260904212018 | 68 | 294 | 17.0 | 24.0 | 0.00 | 0.00 | 0.00 | 1 | 1012.9 |
| 20260904211549 | 68 | 322 | 17.0 | 22.0 | 0.00 | 0.00 | 0.00 | 1 | 1012.9 |
| 20260904211020 | 68 | 304 | 13.0 | 24.0 | 0.00 | 0.00 | 0.00 | 1 | 1013.0 |
| 20260904210520 | 68 | 346 | 15.0 | 24.0 | 0.00 | 0.00 | 0.00 | 1 | 1012.9 |
| 20260904210050 | 68 | 327 | 16.0 | 25.0 | 0.00 | 0.00 | 0.00 | 1 | 1012.8 |
| 20260904205522 | 68 | 311 | 16.0 | 24.0 | 0.00 | 0.00 | 0.00 | 1 | 1012.6 |
| 20260904205022 | 67 | 311 | 15.0 | 24.0 | 0.00 | 0.00 | 0.00 | 1 | 1012.5 |
| 20260904204552 | 67 | 311 | 15.0 | 25.0 | 0.00 | 0.00 | 0.00 | 1 | 1012.4 |
| 20260904204019 | 66 | 355 | 17.0 | 25.0 | 0.00 | 0.00 | 0.00 | 1 | 1012.3 |
| 20260904203516 | 66 | 5 | 17.0 | 24.0 | 0.00 | 0.00 | 0.00 | 1 | 1012.3 |
| 20260904203052 | 66 | 350 | 17.0 | 24.0 | 0.00 | 0.00 | 0.00 | 1 | 1012.2 |
| 20260904202521 | 66 | 355 | 17.0 | 22.0 | 0.00 | 0.00 | 0.00 | 1 | 1012.3 |
| 20260904202020 | 65 | 306 | 15.0 | 23.0 | 0.00 | 0.00 | 0.00 | 1 | 1012.4 |
| 20260904201603 | 65 | 323 | 15.0 | 24.0 | 0.00 | 0.00 | 0.00 | 1 | 1012.4 |
| 20260904201020 | 64 | 321 | 17.0 | 22.0 | 0.00 | 0.00 | 0.00 | 1 | 1012.0 |
| 20260904200517 | 64 | 329 | 16.0 | 20.0 | 0.00 | 0.00 | 0.00 | 1 | 1012.2 |
| 20260904200051 | 64 | 306 | 14.0 | 21.0 | 0.00 | 0.00 | 0.00 | 1 | 1012.4 |
| 20260904195519 | 63 | 314 | 16.0 | 23.0 | 0.00 | 0.00 | 0.00 | 1 | 1012.1 |
| 20260904195017 | 62 | 323 | 18.0 | 23.0 | 0.00 | 0.00 | 0.00 | 1 | 1012.0 |
| 20260904194552 | 63 | 321 | 16.0 | 20.0 | 0.00 | 0.00 | 0.00 | 1 | 1011.7 |
| 20260904194021 | 62 | 306 | 15.0 | 20.0 | 0.00 | 0.00 | 0.00 | 1 | 1011.7 |
| 20260904193518 | 62 | 334 | 15.0 | 22.0 | 0.00 | 0.00 | 0.00 | 1 | 1011.5 |
| 20260904193050 | 62 | 338 | 16.0 | 22.0 | 0.00 | 0.00 | 0.00 | 1 | 1011.2 |
| 20260904192527 | 63 | 325 | 13.0 | 24.0 | 0.00 | 0.00 | 0.00 | 1 | 1011.3 |
| 20260904192022 | 63 | 351 | 16.0 | 23.0 | 0.00 | 0.00 | 0.00 | 1 | 1011.3 |
| 20260904191550 | 62 | 312 | 17.0 | 23.0 | 0.00 | 0.00 | 0.00 | 1 | 1011.2 |